Data for 10/31/2005

Time Sea-Level Adjusted Pressure Absolute Pressure Temperature Relative Humidity Dew Point   
(mb) (inHg) (mb) (inHg) (C) (F) (%) (C) (F)
00:05 1028 30.36 857 25.31 -1.1 29.9 66 -6.6 20.1
00:10 1028 30.36 857 25.31 -1.5 29.3 68 -6.6 20.1
00:15 1028 30.36 857 25.31 -1.4 29.4 67 -6.7 19.9
00:20 1028 30.36 857 25.31 -1.7 28.9 69 -6.6 20.1
00:25 1028 30.36 857 25.31 -1.9 28.6 70 -6.7 19.9
00:30 1028 30.36 857 25.31 -1.7 28.9 67 -7.1 19.2
00:35 1028 30.36 857 25.31 -1.2 29.8 64 -7.2 19.1
00:40 1028 30.36 857 25.31 -1.1 30 64 -7.1 19.2
00:45 1027 30.33 857 25.31 -1.1 30.1 65 -6.9 19.7
00:50 1027 30.33 857 25.31 -1.6 29.1 69 -6.5 20.3
00:55 1027 30.33 857 25.31 -1.6 29.2 65 -7.3 18.8
01:00 1027 30.33 857 25.31 -1.2 29.9 64 -7.2 19.1
01:05 1027 30.33 857 25.31 -1.1 29.9 62 -7.5 18.6
01:10 1027 30.33 857 25.31 -1 30.3 62 -7.3 18.8
01:15 1027 30.33 857 25.31 -0.9 30.3 62 -7.2 19
01:20 1027 30.33 857 25.31 -1 30.3 61 -7.5 18.4
01:25 1027 30.33 857 25.31 -0.9 30.4 62 -7.3 18.8
01:30 1027 30.33 857 25.31 -1 30.3 62 -7.4 18.7
01:35 1027 30.33 857 25.31 -0.9 30.4 61 -7.4 18.6
01:40 1027 30.33 856 25.28 -0.9 30.4 61 -7.4 18.6
01:45 1027 30.33 856 25.28 -0.8 30.6 61 -7.4 18.7
01:50 1027 30.33 856 25.28 -0.7 30.7 60 -7.6 18.4
01:55 1027 30.33 856 25.28 -0.5 31 58 -7.7 18.1
02:00 1027 30.33 856 25.28 -0.4 31.3 57 -7.9 17.8
02:05 1027 30.33 856 25.28 -0.4 31.4 57 -7.9 17.8
02:10 1027 30.33 856 25.28 -0.4 31.3 56 -8.2 17.3
02:15 1027 30.33 856 25.28 -0.2 31.6 56 -7.9 17.8
02:20 1027 30.33 856 25.28 -0.3 31.5 56 -8.1 17.4
02:25 1027 30.33 856 25.28 -0.2 31.7 55 -8.1 17.5
02:30 1027 30.33 856 25.28 -0.3 31.5 56 -8 17.5
02:35 1027 30.33 856 25.28 -0.5 31.1 56 -8.2 17.3
02:40 1027 30.33 856 25.28 -0.6 31 57 -8 17.5
02:45 1027 30.33 856 25.28 -0.7 30.7 58 -8 17.5
02:50 1027 30.33 856 25.28 -0.7 30.8 57 -8.2 17.2
02:55 1027 30.33 856 25.28 -0.6 30.9 56 -8.4 16.9
03:00 1027 30.33 856 25.28 -0.3 31.4 54 -8.6 16.6
03:05 1027 30.33 856 25.28 -0.2 31.6 56 -8 17.5
03:10 1027 30.33 856 25.28 -0.3 31.5 56 -8 17.6
03:15 1027 30.33 856 25.28 -0.2 31.6 53 -8.8 16.2
03:20 1027 30.33 856 25.28 -0.3 31.5 57 -7.9 17.8
03:25 1027 30.33 856 25.28 -0.5 31.1 55 -8.5 16.7
03:30 1026 30.3 856 25.28 -0.8 30.6 59 -7.8 18
03:35 1026 30.3 856 25.28 -0.9 30.5 56 -8.6 16.6
03:40 1026 30.3 856 25.28 -0.7 30.8 56 -8.4 16.8
03:45 1026 30.3 856 25.28 -0.8 30.5 56 -8.5 16.6
03:50 1026 30.3 855 25.25 -0.8 30.6 56 -8.5 16.8
03:55 1026 30.3 855 25.25 -0.9 30.3 58 -8.3 17.1
04:00 1026 30.3 855 25.25 -1.1 30 58 -8.4 16.9
04:05 1026 30.3 855 25.25 -1.2 29.9 57 -8.7 16.3
04:10 1026 30.3 855 25.25 -0.6 30.9 54 -8.8 16.1
04:15 1026 30.3 855 25.25 -0.4 31.2 54 -8.7 16.4
04:20 1026 30.3 855 25.25 -0.4 31.2 54 -8.6 16.5
04:25 1026 30.3 855 25.25 -0.3 31.5 53 -8.7 16.4
04:30 1026 30.3 855 25.25 -0.4 31.3 55 -8.4 16.8
04:35 1026 30.3 855 25.25 -0.6 31 56 -8.3 17.1
04:40 1026 30.3 855 25.25 -0.7 30.8 55 -8.5 16.6
04:45 1026 30.3 855 25.25 -0.6 30.9 55 -8.5 16.8
04:50 1026 30.3 855 25.25 -0.6 30.9 55 -8.5 16.6
04:55 1025 30.27 855 25.25 -0.5 31.2 55 -8.5 16.8
05:00 1025 30.27 854 25.22 -0.7 30.8 56 -8.4 16.9
05:05 1025 30.27 854 25.22 -0.7 30.8 56 -8.3 17
05:10 1025 30.27 854 25.22 -0.6 30.9 56 -8.4 17
05:15 1025 30.27 854 25.22 -0.5 31.2 56 -8.3 17.1
05:20 1025 30.27 854 25.22 -0.4 31.3 56 -8.2 17.3
05:25 1025 30.27 854 25.22 -0.3 31.5 55 -8.3 17.1
05:30 1025 30.27 854 25.22 -0.2 31.7 55 -8.2 17.2
05:35 1025 30.27 854 25.22 -0.1 31.7 55 -8.2 17.2
05:40 1025 30.27 854 25.22 -0.2 31.7 56 -8 17.6
05:45 1025 30.27 854 25.22 -0.2 31.6 56 -8 17.6
05:50 1025 30.27 854 25.22 -0.2 31.7 56 -8 17.7
05:55 1025 30.27 854 25.22 0 32 55 -8 17.6
06:00 1025 30.27 854 25.22 -0.1 31.9 56 -7.9 17.8
06:05 1025 30.27 854 25.22 -0 32 54 -8.2 17.3
06:10 1024 30.24 854 25.22 0.2 32.4 54 -8 17.6
06:15 1024 30.24 853 25.19 0.2 32.3 55 -7.9 17.8
06:20 1024 30.24 853 25.19 0 32.1 56 -7.8 18
06:25 1024 30.24 853 25.19 0.1 32.1 56 -7.8 18
06:30 1024 30.24 853 25.19 0.1 32.2 56 -7.8 18
06:35 1024 30.24 853 25.19 0.3 32.5 53 -8.1 17.3
06:40 1024 30.24 853 25.19 0.6 33 52 -8.2 17.2
06:45 1024 30.24 853 25.19 0.7 33.3 52 -8.1 17.5
06:50 1024 30.24 853 25.19 0.8 33.4 51 -8.2 17.2
06:55 1024 30.24 853 25.19 0.9 33.6 50 -8.4 16.9
07:00 1024 30.24 853 25.19 1 33.8 50 -8.4 16.9
07:05 1024 30.24 853 25.19 1 33.8 51 -8.1 17.3
07:10 1024 30.24 853 25.19 0.9 33.6 51 -8.2 17.2
07:15 1024 30.24 853 25.19 0.7 33.3 52 -7.9 17.7
07:20 1023 30.21 853 25.19 0.4 32.7 54 -7.7 18.1
07:25 1023 30.21 853 25.19 0.4 32.7 54 -7.9 17.8
07:30 1023 30.21 853 25.19 0.5 32.8 53 -8.1 17.4
07:35 1023 30.21 852 25.16 0.7 33.3 52 -8 17.7
07:40 1023 30.21 852 25.16 0.8 33.5 52 -7.9 17.7
07:45 1023 30.21 852 25.16 1 33.8 53 -7.7 18.2
07:50 1023 30.21 852 25.16 0.8 33.4 54 -7.5 18.4
07:55 1023 30.21 852 25.16 0.6 33.2 53 -7.9 17.7
08:00 1023 30.21 852 25.16 0.8 33.4 53 -7.8 18
08:05 1023 30.21 852 25.16 1 33.8 50 -8.2 17.2
08:10 1023 30.21 852 25.16 1.5 34.6 50 -7.9 17.8
08:15 1023 30.21 852 25.16 1.4 34.6 52 -7.3 18.8
08:20 1023 30.21 852 25.16 1.6 34.9 51 -7.6 18.4
08:25 1023 30.21 852 25.16 1.6 34.9 51 -7.6 18.4
08:30 1023 30.21 852 25.16 1.7 35.1 51 -7.5 18.5
08:35 1023 30.21 852 25.16 2 35.6 50 -7.4 18.7
08:40 1023 30.21 852 25.16 2 35.6 52 -6.9 19.5
08:45 1022 30.18 852 25.16 1.9 35.4 53 -6.6 20.1
08:50 1022 30.18 851 25.13 1.9 35.5 54 -6.4 20.5
08:55 1022 30.18 852 25.16 2.1 35.7 53 -6.6 20.1
09:00 1022 30.18 852 25.16 2.3 36.1 55 -5.8 21.6
09:05 1022 30.18 852 25.16 2.2 36 55 -5.8 21.6
09:10 1022 30.18 851 25.13 2.3 36.2 54 -6 21.2
09:15 1022 30.18 851 25.13 2.3 36.2 53 -6.2 20.9
09:20 1022 30.18 851 25.13 2.5 36.6 53 -6 21.2
09:25 1022 30.18 851 25.13 2.9 37.2 48 -7 19.4
09:30 1022 30.18 851 25.13 3.3 37.9 46 -7.2 19.1
09:35 1022 30.18 851 25.13 3.6 38.4 46 -6.9 19.6
09:40 1022 30.18 851 25.13 3.9 39.1 46 -6.5 20.3
09:45 1022 30.18 851 25.13 4.2 39.5 45 -6.6 20.1
09:50 1021 30.15 851 25.13 4.4 39.9 44 -6.8 19.7
09:55 1021 30.15 851 25.13 4.9 40.7 41 -7.2 19
10:00 1021 30.15 851 25.13 5.1 41.2 42 -6.9 19.6
10:05 1021 30.15 851 25.13 5.4 41.8 41 -6.7 19.9
10:10 1021 30.15 851 25.13 6 42.9 37 -7.6 18.3
10:15 1021 30.15 851 25.13 6.8 44.2 39 -6.4 20.5
10:20 1021 30.15 850 25.1 7 44.7 39 -6.1 21.1
10:25 1021 30.15 850 25.1 7.5 45.5 36 -6.8 19.8
10:30 1021 30.15 850 25.1 7.8 46 36 -6.5 20.2
10:35 1021 30.15 850 25.1 7.9 46.1 35 -6.5 20.3
10:40 1021 30.15 850 25.1 7.9 46.2 36 -6.1 21.1
10:45 1021 30.15 850 25.1 7.9 46.2 35 -6.6 20.2
10:50 1021 30.15 850 25.1 8 46.3 36 -6.2 20.9
10:55 1021 30.15 851 25.13 8.1 46.6 36 -5.9 21.3
11:00 1021 30.15 851 25.13 8.2 46.8 37 -5.7 21.8
11:05 1021 30.15 851 25.13 8.4 47.1 38 -5.3 22.5
11:10 1021 30.15 851 25.13 8.4 47 39 -4.8 23.3
11:15 1021 30.15 851 25.13 8.3 47 38 -5.3 22.5
11:20 1021 30.15 850 25.1 8.5 47.2 35 -6.2 20.9
11:25 1021 30.15 850 25.1 8.7 47.7 37 -5.2 22.6
11:30 1021 30.15 850 25.1 8.8 47.8 38 -4.9 23.2
11:35 1021 30.15 850 25.1 8.8 47.9 37 -5.2 22.6
11:40 1021 30.15 850 25.1 8.9 48 38 -4.6 23.7
11:45 1021 30.15 850 25.1 9 48.2 39 -4.3 24.3
11:50 1021 30.15 850 25.1 9.1 48.4 39 -3.9 24.9
11:55 1021 30.15 850 25.1 9.2 48.6 39 -4.1 24.6
12:00 1021 30.15 850 25.1 9.4 48.9 39 -3.9 24.9
12:05 1021 30.15 850 25.1 9.5 49 38 -4.2 24.5
12:10 1021 30.15 850 25.1 9.3 48.8 39 -3.9 25
12:15 1021 30.15 850 25.1 9.4 48.9 39 -3.7 25.4
12:20 1021 30.15 850 25.1 9.4 49 38 -4 24.8
12:25 1021 30.15 850 25.1 9.6 49.2 39 -3.6 25.5
12:30 1021 30.15 850 25.1 9.6 49.3 39 -3.6 25.5
12:35 1021 30.15 850 25.1 9.6 49.2 40 -3.4 25.9
12:40 1020 30.12 850 25.1 9.5 49.2 40 -3.5 25.8
12:45 1020 30.12 850 25.1 9.7 49.4 39 -3.6 25.4
12:50 1020 30.12 850 25.1 9.7 49.5 39 -3.5 25.7
12:55 1020 30.12 850 25.1 9.8 49.7 39 -3.3 26
13:00 1020 30.12 849 25.07 9.9 49.8 39 -3.3 26.1
13:05 1020 30.12 849 25.07 9.9 49.9 39 -3.4 25.8
13:10 1020 30.12 849 25.07 10.1 50.1 40 -2.8 26.9
13:15 1020 30.12 849 25.07 10.1 50.1 41 -2.7 27.2
13:20 1020 30.12 849 25.07 10.2 50.4 41 -2.5 27.5
13:25 1020 30.12 849 25.07 10.6 51 40 -2.5 27.6
13:30 1020 30.12 849 25.07 10.7 51.2 40 -2.5 27.6
13:35 1020 30.12 849 25.07 10.7 51.2 40 -2.2 28
13:40 1020 30.12 849 25.07 10.5 51 41 -2.1 28.2
13:45 1020 30.12 849 25.07 10.4 50.7 41 -2.2 28
13:50 1020 30.12 849 25.07 10.4 50.6 41 -2.2 28
13:55 1020 30.12 849 25.07 10.4 50.7 41 -2.1 28.1
14:00 1020 30.12 849 25.07 10.4 50.7 42 -2 28.4
14:05 1020 30.12 849 25.07 10.4 50.6 41 -2.2 28
14:10 1020 30.12 849 25.07 10.4 50.7 41 -2.2 28
14:15 1020 30.12 849 25.07 10.4 50.7 42 -1.8 28.7
14:20 1020 30.12 849 25.07 10.4 50.7 41 -2.1 28.3
14:25 1020 30.12 849 25.07 10.5 50.8 42 -1.9 28.6
14:30 1020 30.12 849 25.07 10.4 50.8 42 -1.8 28.8
14:35 1020 30.12 849 25.07 10.3 50.6 43 -1.7 28.9
14:40 1020 30.12 849 25.07 10.4 50.7 43 -1.7 29
14:45 1020 30.12 849 25.07 10.3 50.6 43 -1.8 28.8
14:50 1020 30.12 849 25.07 10.3 50.6 43 -1.6 29.2
14:55 1020 30.12 849 25.07 10.4 50.6 44 -1.5 29.4
15:00 1020 30.12 849 25.07 10.3 50.6 44 -1.5 29.3
15:05 1020 30.12 849 25.07 10.4 50.7 43 -1.5 29.3
15:10 1020 30.12 849 25.07 10.5 50.9 44 -1.3 29.7
15:15 1020 30.12 849 25.07 10.5 50.9 44 -1.3 29.6
15:20 1020 30.12 849 25.07 10.4 50.8 44 -1.3 29.6
15:25 1020 30.12 849 25.07 10.4 50.7 45 -1 30.2
15:30 1020 30.12 849 25.07 10.3 50.6 45 -1.1 30.1
15:35 1020 30.12 849 25.07 10.4 50.6 45 -0.9 30.4
15:40 1020 30.12 849 25.07 10.3 50.6 45 -0.9 30.3
15:45 1020 30.12 849 25.07 10.4 50.8 45 -0.9 30.4
15:50 1020 30.12 849 25.07 10.5 51 45 -0.7 30.7
15:55 1020 30.12 849 25.07 10.5 50.9 46 -0.5 31.1
16:00 1020 30.12 849 25.07 10.4 50.8 47 -0.4 31.4
16:05 1020 30.12 849 25.07 10.5 50.8 47 -0.4 31.3
16:10 1020 30.12 849 25.07 10.5 50.8 47 -0.3 31.5
16:15 1020 30.12 849 25.07 10.5 50.9 47 -0.2 31.7
16:20 1020 30.12 849 25.07 10.5 50.9 48 -0.1 31.9
16:25 1020 30.12 849 25.07 10.6 51.1 47 -0.1 31.8
16:30 1020 30.12 849 25.07 10.7 51.3 47 0 32.1
16:35 1020 30.12 849 25.07 11 51.9 46 0 32.1
16:40 1020 30.12 849 25.07 11.2 52.1 46 0.1 32.2
16:45 1020 30.12 849 25.07 11 51.9 48 0.4 32.6
16:50 1020 30.12 849 25.07 10.9 51.7 47 0.2 32.4
16:55 1020 30.12 849 25.07 10.9 51.6 48 0.3 32.5
17:00 1020 30.12 849 25.07 10.8 51.4 49 0.6 33.1
17:05 1020 30.12 849 25.07 10.6 51 49 0.5 32.9
17:10 1020 30.12 849 25.07 10.5 51 49 0.4 32.8
17:15 1020 30.12 849 25.07 10.5 50.9 50 0.6 33
17:20 1020 30.12 849 25.07 10.5 51 50 0.5 32.9
17:25 1020 30.12 849 25.07 10.5 50.9 49 0.4 32.8
17:30 1020 30.12 849 25.07 10.5 50.9 50 0.6 33.1
17:35 1020 30.12 849 25.07 10.3 50.6 51 0.6 33.1
17:40 1020 30.12 849 25.07 10.3 50.6 50 0.5 32.9
17:45 1020 30.12 849 25.07 10.4 50.7 50 0.6 33.1
17:50 1020 30.12 849 25.07 10.4 50.8 50 0.6 33
17:55 1020 30.12 849 25.07 10.5 50.8 51 0.8 33.4
18:00 1020 30.12 849 25.07 10.3 50.6 51 0.7 33.2
18:05 1020 30.12 849 25.07 10.4 50.7 50 0.5 33
18:10 1020 30.12 849 25.07 10.4 50.8 51 0.8 33.4
18:15 1020 30.12 849 25.07 10.3 50.6 51 0.6 33.1
18:20 1020 30.12 849 25.07 10.5 50.8 50 0.4 32.8
18:25 1020 30.12 849 25.07 10.7 51.2 49 0.6 33.1
18:30 1020 30.12 849 25.07 10.7 51.2 50 0.6 33.2
18:35 1020 30.12 849 25.07 10.6 51.1 50 0.7 33.3
18:40 1020 30.12 849 25.07 10.6 51.1 51 0.8 33.4
18:45 1020 30.12 849 25.07 10.6 51 50 0.6 33.2
18:50 1020 30.12 849 25.07 10.6 51.1 51 0.9 33.6
18:55 1020 30.12 849 25.07 10.6 51.2 50 0.8 33.5
19:00 1020 30.12 849 25.07 10.7 51.2 50 0.8 33.5
19:05 1020 30.12 849 25.07 10.7 51.2 51 0.9 33.6
19:10 1020 30.12 849 25.07 10.6 51.1 52 1.1 34
19:15 1020 30.12 849 25.07 10.5 50.9 52 1.1 33.9
19:20 1020 30.12 849 25.07 10.5 50.9 52 1.1 33.9
19:25 1020 30.12 849 25.07 10.5 50.9 52 1.1 34
19:30 1020 30.12 849 25.07 10.5 50.8 52 1 33.9
19:35 1020 30.12 849 25.07 10.4 50.8 52 1.1 33.9
19:40 1020 30.12 849 25.07 10.5 50.8 52 1 33.8
19:45 1020 30.12 849 25.07 10.5 50.9 52 1 33.8
19:50 1020 30.12 849 25.07 10.7 51.2 51 0.9 33.7
19:55 1020 30.12 849 25.07 10.7 51.2 51 1 33.8
20:00 1020 30.12 849 25.07 10.7 51.3 51 1 33.8
20:05 1020 30.12 849 25.07 10.7 51.3 51 1 33.8
20:10 1020 30.12 849 25.07 10.8 51.4 51 1.1 34
20:15 1020 30.12 849 25.07 10.7 51.3 51 1 33.8
20:20 1020 30.12 849 25.07 10.7 51.3 51 1.1 34
20:25 1020 30.12 849 25.07 10.7 51.3 51 1.1 34
20:30 1020 30.12 849 25.07 10.8 51.5 51 1.1 34.1
20:35 1020 30.12 849 25.07 10.8 51.5 51 1.1 34
20:40 1020 30.12 849 25.07 10.9 51.7 50 1 33.7
20:45 1020 30.12 849 25.07 11 51.7 50 1 33.8
20:50 1020 30.12 849 25.07 11 51.8 50 1.1 34
20:55 1020 30.12 849 25.07 11 51.7 51 1.2 34.1
21:00 1020 30.12 849 25.07 10.9 51.6 51 1.1 34
21:05 1020 30.12 849 25.07 10.9 51.6 51 1.1 34
21:10 1020 30.12 849 25.07 11 51.8 50 1 33.8
21:15 1020 30.12 849 25.07 11.1 52 50 1 33.9
21:20 1020 30.12 849 25.07 11.1 52 50 1.1 33.9
21:25 1020 30.12 849 25.07 11.1 52 50 1.1 34
21:30 1020 30.12 849 25.07 11.2 52.1 49 1 33.8
21:35 1019 30.09 849 25.07 11.1 52.1 50 1 33.9
21:40 1019 30.09 849 25.07 11.1 52 49 0.9 33.6
21:45 1019 30.09 849 25.07 11.2 52.1 49 0.9 33.7
21:50 1019 30.09 849 25.07 11.2 52.1 49 1.1 33.9
21:55 1019 30.09 849 25.07 11.1 51.9 50 1.2 34.1
22:00 1020 30.12 849 25.07 10.9 51.7 51 1.1 34.1
22:05 1020 30.12 849 25.07 10.8 51.5 51 1.1 33.9
22:10 1019 30.09 849 25.07 10.7 51.3 51 1.1 34
22:15 1019 30.09 849 25.07 10.6 51 51 0.9 33.7
22:20 1019 30.09 849 25.07 10.7 51.3 51 1 33.9
22:25 1019 30.09 849 25.07 10.7 51.2 51 1 33.8
22:30 1019 30.09 849 25.07 10.7 51.3 51 1 33.7
22:35 1019 30.09 849 25.07 10.8 51.5 50 0.9 33.6
22:40 1019 30.09 849 25.07 10.9 51.5 50 1 33.7
22:45 1019 30.09 848 25.04 10.9 51.6 50 0.9 33.6
22:50 1019 30.09 848 25.04 10.8 51.4 51 1 33.9
22:55 1019 30.09 848 25.04 10.6 51.1 51 1 33.9
23:00 1019 30.09 848 25.04 10.8 51.4 50 0.7 33.3
23:05 1019 30.09 848 25.04 11 51.8 50 1 33.7
23:10 1019 30.09 848 25.04 11.2 52.1 48 0.7 33.3
23:15 1019 30.09 848 25.04 11.5 52.7 48 0.9 33.6
23:20 1019 30.09 848 25.04 11.5 52.7 48 1.1 33.9
23:25 1019 30.09 848 25.04 11.4 52.5 49 1.1 34
23:30 1019 30.09 848 25.04 11.5 52.6 48 1 33.8
23:35 1019 30.09 848 25.04 11.6 52.9 49 1.2 34.1
23:40 1019 30.09 848 25.04 11.5 52.7 49 1.2 34.1
23:45 1019 30.09 848 25.04 11.5 52.6 49 1.1 33.9
23:50 1019 30.09 848 25.04 11.5 52.7 48 1.1 33.9
23:55 1019 30.09 848 25.04 11.5 52.8 49 1.1 34
24:00 1019 30.09 848 25.04 11.6 52.9 48 1 33.7